sensor_id;sensor_type;location;lat;lon;timestamp;temperature;humidity
52941;DHT22;62001;53.366;6.636;2023-07-29T00:00:43;17.60;99.90
52941;DHT22;62001;53.366;6.636;2023-07-29T00:03:09;17.60;99.90
52941;DHT22;62001;53.366;6.636;2023-07-29T00:05:37;17.70;99.90
52941;DHT22;62001;53.366;6.636;2023-07-29T00:08:03;17.70;99.90
52941;DHT22;62001;53.366;6.636;2023-07-29T00:10:31;17.70;99.90
52941;DHT22;62001;53.366;6.636;2023-07-29T00:12:56;17.80;99.90
52941;DHT22;62001;53.366;6.636;2023-07-29T00:15:22;17.80;99.90
52941;DHT22;62001;53.366;6.636;2023-07-29T00:17:48;17.90;99.90
52941;DHT22;62001;53.366;6.636;2023-07-29T00:20:14;17.90;99.90
52941;DHT22;62001;53.366;6.636;2023-07-29T00:22:40;17.90;99.90
52941;DHT22;62001;53.366;6.636;2023-07-29T00:25:07;18.00;99.90
52941;DHT22;62001;53.366;6.636;2023-07-29T00:27:32;18.00;99.90
52941;DHT22;62001;53.366;6.636;2023-07-29T00:29:58;18.00;99.90
52941;DHT22;62001;53.366;6.636;2023-07-29T00:32:24;18.10;99.90
52941;DHT22;62001;53.366;6.636;2023-07-29T00:34:50;18.10;99.90
52941;DHT22;62001;53.366;6.636;2023-07-29T00:37:16;18.20;99.90
52941;DHT22;62001;53.366;6.636;2023-07-29T00:39:42;18.20;99.90
52941;DHT22;62001;53.366;6.636;2023-07-29T00:42:08;18.20;99.90
52941;DHT22;62001;53.366;6.636;2023-07-29T00:44:34;18.20;99.90
52941;DHT22;62001;53.366;6.636;2023-07-29T00:47:02;18.20;99.90
52941;DHT22;62001;53.366;6.636;2023-07-29T00:49:29;18.20;99.90
52941;DHT22;62001;53.366;6.636;2023-07-29T00:51:55;18.30;99.90
52941;DHT22;62001;53.366;6.636;2023-07-29T00:54:21;18.30;99.90
52941;DHT22;62001;53.366;6.636;2023-07-29T00:56:47;18.30;99.90
52941;DHT22;62001;53.366;6.636;2023-07-29T00:59:13;18.30;99.90
52941;DHT22;62001;53.366;6.636;2023-07-29T01:01:39;18.20;99.90
52941;DHT22;62001;53.366;6.636;2023-07-29T01:04:05;18.30;99.90
52941;DHT22;62001;53.366;6.636;2023-07-29T01:06:50;18.30;99.90
52941;DHT22;62001;53.366;6.636;2023-07-29T01:09:33;18.30;99.90
52941;DHT22;62001;53.366;6.636;2023-07-29T01:17:53;18.30;99.90
52941;DHT22;62001;53.366;6.636;2023-07-29T01:20:20;18.30;99.90
52941;DHT22;62001;53.366;6.636;2023-07-29T01:22:47;18.30;99.90
52941;DHT22;62001;53.366;6.636;2023-07-29T01:25:13;18.30;99.90
52941;DHT22;62001;53.366;6.636;2023-07-29T01:27:41;18.30;99.90
52941;DHT22;62001;53.366;6.636;2023-07-29T01:30:08;18.40;99.90
52941;DHT22;62001;53.366;6.636;2023-07-29T01:32:53;18.30;99.90
52941;DHT22;62001;53.366;6.636;2023-07-29T01:35:33;18.30;99.90
52941;DHT22;62001;53.366;6.636;2023-07-29T01:38:01;18.40;99.90
52941;DHT22;62001;53.366;6.636;2023-07-29T01:40:28;18.30;99.90
52941;DHT22;62001;53.366;6.636;2023-07-29T01:42:54;18.30;99.90
52941;DHT22;62001;53.366;6.636;2023-07-29T01:45:24;18.20;99.90
52941;DHT22;62001;53.366;6.636;2023-07-29T01:47:53;18.20;99.90
52941;DHT22;62001;53.366;6.636;2023-07-29T01:50:19;18.20;99.90
52941;DHT22;62001;53.366;6.636;2023-07-29T01:52:45;18.20;99.90
52941;DHT22;62001;53.366;6.636;2023-07-29T01:55:11;18.20;99.90
52941;DHT22;62001;53.366;6.636;2023-07-29T01:57:37;18.10;99.90
52941;DHT22;62001;53.366;6.636;2023-07-29T02:00:03;18.10;99.90
52941;DHT22;62001;53.366;6.636;2023-07-29T02:02:29;18.10;99.90
52941;DHT22;62001;53.366;6.636;2023-07-29T02:04:55;18.10;99.90
52941;DHT22;62001;53.366;6.636;2023-07-29T02:07:21;18.10;99.90
52941;DHT22;62001;53.366;6.636;2023-07-29T02:09:47;18.00;99.90
52941;DHT22;62001;53.366;6.636;2023-07-29T02:12:13;18.00;99.90
52941;DHT22;62001;53.366;6.636;2023-07-29T02:14:39;18.00;99.90
52941;DHT22;62001;53.366;6.636;2023-07-29T02:17:05;18.00;99.90
52941;DHT22;62001;53.366;6.636;2023-07-29T02:19:30;18.00;99.90
52941;DHT22;62001;53.366;6.636;2023-07-29T02:21:56;18.00;99.90
52941;DHT22;62001;53.366;6.636;2023-07-29T02:24:22;17.90;99.90
52941;DHT22;62001;53.366;6.636;2023-07-29T02:26:48;17.90;99.90
52941;DHT22;62001;53.366;6.636;2023-07-29T02:29:14;17.90;99.90
52941;DHT22;62001;53.366;6.636;2023-07-29T02:31:40;17.80;99.90
52941;DHT22;62001;53.366;6.636;2023-07-29T02:34:05;17.80;99.90
52941;DHT22;62001;53.366;6.636;2023-07-29T02:36:31;17.70;99.90
52941;DHT22;62001;53.366;6.636;2023-07-29T02:38:57;17.80;99.90
52941;DHT22;62001;53.366;6.636;2023-07-29T02:41:23;17.70;99.90
52941;DHT22;62001;53.366;6.636;2023-07-29T02:43:50;17.70;99.90
52941;DHT22;62001;53.366;6.636;2023-07-29T02:46:16;17.60;99.90
52941;DHT22;62001;53.366;6.636;2023-07-29T02:48:43;17.60;99.90
52941;DHT22;62001;53.366;6.636;2023-07-29T02:51:09;17.50;99.90
52941;DHT22;62001;53.366;6.636;2023-07-29T02:53:35;17.50;99.90
52941;DHT22;62001;53.366;6.636;2023-07-29T02:56:05;17.40;99.90
52941;DHT22;62001;53.366;6.636;2023-07-29T02:58:31;17.40;99.90
52941;DHT22;62001;53.366;6.636;2023-07-29T03:01:01;17.40;99.90
52941;DHT22;62001;53.366;6.636;2023-07-29T03:03:28;17.40;99.90
52941;DHT22;62001;53.366;6.636;2023-07-29T03:06:02;17.30;99.90
52941;DHT22;62001;53.366;6.636;2023-07-29T03:08:28;17.40;99.90
52941;DHT22;62001;53.366;6.636;2023-07-29T03:10:55;17.30;99.90
52941;DHT22;62001;53.366;6.636;2023-07-29T03:13:21;17.40;99.90
52941;DHT22;62001;53.366;6.636;2023-07-29T03:15:47;17.30;99.90
52941;DHT22;62001;53.366;6.636;2023-07-29T03:18:13;17.40;99.90
52941;DHT22;62001;53.366;6.636;2023-07-29T03:20:39;17.30;99.90
52941;DHT22;62001;53.366;6.636;2023-07-29T03:23:06;17.30;99.90
52941;DHT22;62001;53.366;6.636;2023-07-29T03:25:32;17.20;99.90
52941;DHT22;62001;53.366;6.636;2023-07-29T03:27:58;17.20;99.90
52941;DHT22;62001;53.366;6.636;2023-07-29T03:30:24;17.10;99.90
52941;DHT22;62001;53.366;6.636;2023-07-29T03:32:50;17.10;99.90
52941;DHT22;62001;53.366;6.636;2023-07-29T03:35:16;17.10;99.90
52941;DHT22;62001;53.366;6.636;2023-07-29T03:37:42;17.00;99.90
52941;DHT22;62001;53.366;6.636;2023-07-29T03:40:08;17.00;99.90
52941;DHT22;62001;53.366;6.636;2023-07-29T03:42:35;16.90;99.90
52941;DHT22;62001;53.366;6.636;2023-07-29T03:45:01;16.90;99.90
52941;DHT22;62001;53.366;6.636;2023-07-29T03:47:27;16.80;99.90
52941;DHT22;62001;53.366;6.636;2023-07-29T03:49:53;16.80;99.90
52941;DHT22;62001;53.366;6.636;2023-07-29T03:52:19;16.80;99.90
52941;DHT22;62001;53.366;6.636;2023-07-29T03:54:45;16.70;99.90
52941;DHT22;62001;53.366;6.636;2023-07-29T03:57:11;16.70;99.90
52941;DHT22;62001;53.366;6.636;2023-07-29T03:59:37;16.70;99.90
52941;DHT22;62001;53.366;6.636;2023-07-29T04:02:03;16.60;99.90
52941;DHT22;62001;53.366;6.636;2023-07-29T04:04:29;16.60;99.90
52941;DHT22;62001;53.366;6.636;2023-07-29T04:06:55;16.60;99.90
52941;DHT22;62001;53.366;6.636;2023-07-29T04:09:20;16.60;99.90
52941;DHT22;62001;53.366;6.636;2023-07-29T04:11:46;16.50;99.90
52941;DHT22;62001;53.366;6.636;2023-07-29T04:14:12;16.50;99.90
52941;DHT22;62001;53.366;6.636;2023-07-29T04:16:38;16.50;99.90
52941;DHT22;62001;53.366;6.636;2023-07-29T04:19:04;16.50;99.90
52941;DHT22;62001;53.366;6.636;2023-07-29T04:21:30;16.40;99.90
52941;DHT22;62001;53.366;6.636;2023-07-29T04:23:56;16.50;99.90
52941;DHT22;62001;53.366;6.636;2023-07-29T04:26:22;16.50;99.90
52941;DHT22;62001;53.366;6.636;2023-07-29T04:28:47;16.50;99.90
52941;DHT22;62001;53.366;6.636;2023-07-29T04:31:13;16.50;99.90
52941;DHT22;62001;53.366;6.636;2023-07-29T04:33:39;16.50;99.90
52941;DHT22;62001;53.366;6.636;2023-07-29T04:36:05;16.60;99.90
52941;DHT22;62001;53.366;6.636;2023-07-29T04:38:32;16.60;99.90
52941;DHT22;62001;53.366;6.636;2023-07-29T04:40:58;16.70;99.90
52941;DHT22;62001;53.366;6.636;2023-07-29T04:43:28;16.70;99.90
52941;DHT22;62001;53.366;6.636;2023-07-29T04:45:54;16.70;99.90
52941;DHT22;62001;53.366;6.636;2023-07-29T04:48:20;16.80;99.90
52941;DHT22;62001;53.366;6.636;2023-07-29T04:50:46;16.90;99.90
52941;DHT22;62001;53.366;6.636;2023-07-29T04:53:11;16.90;99.90
52941;DHT22;62001;53.366;6.636;2023-07-29T04:55:37;17.00;99.90
52941;DHT22;62001;53.366;6.636;2023-07-29T04:58:03;17.10;99.90
52941;DHT22;62001;53.366;6.636;2023-07-29T05:00:29;17.20;99.90
52941;DHT22;62001;53.366;6.636;2023-07-29T05:02:55;17.30;99.90
52941;DHT22;62001;53.366;6.636;2023-07-29T05:05:21;17.30;99.90
52941;DHT22;62001;53.366;6.636;2023-07-29T05:07:46;17.40;99.90
52941;DHT22;62001;53.366;6.636;2023-07-29T05:10:12;17.50;99.90
52941;DHT22;62001;53.366;6.636;2023-07-29T05:12:38;17.60;99.90
52941;DHT22;62001;53.366;6.636;2023-07-29T05:15:04;17.60;99.90
52941;DHT22;62001;53.366;6.636;2023-07-29T05:17:30;17.70;99.90
52941;DHT22;62001;53.366;6.636;2023-07-29T05:19:56;17.60;99.90
52941;DHT22;62001;53.366;6.636;2023-07-29T05:22:22;17.70;99.90
52941;DHT22;62001;53.366;6.636;2023-07-29T05:24:48;17.70;99.90
52941;DHT22;62001;53.366;6.636;2023-07-29T05:27:14;17.60;99.90
52941;DHT22;62001;53.366;6.636;2023-07-29T05:29:40;17.70;99.90
52941;DHT22;62001;53.366;6.636;2023-07-29T05:32:06;17.70;99.90
52941;DHT22;62001;53.366;6.636;2023-07-29T05:34:32;17.70;99.90
52941;DHT22;62001;53.366;6.636;2023-07-29T05:36:57;17.80;99.90
52941;DHT22;62001;53.366;6.636;2023-07-29T05:39:23;17.80;99.90
52941;DHT22;62001;53.366;6.636;2023-07-29T05:41:49;17.80;99.90
52941;DHT22;62001;53.366;6.636;2023-07-29T05:44:15;17.90;99.90
52941;DHT22;62001;53.366;6.636;2023-07-29T05:46:41;17.90;99.90
52941;DHT22;62001;53.366;6.636;2023-07-29T05:49:07;17.90;99.90
52941;DHT22;62001;53.366;6.636;2023-07-29T05:51:33;17.90;99.90
52941;DHT22;62001;53.366;6.636;2023-07-29T05:53:59;18.00;99.90
52941;DHT22;62001;53.366;6.636;2023-07-29T05:56:25;18.00;99.90
52941;DHT22;62001;53.366;6.636;2023-07-29T05:58:50;18.00;99.90
52941;DHT22;62001;53.366;6.636;2023-07-29T06:01:16;18.10;99.90
52941;DHT22;62001;53.366;6.636;2023-07-29T06:03:42;18.10;99.90
52941;DHT22;62001;53.366;6.636;2023-07-29T06:06:08;18.10;99.90
52941;DHT22;62001;53.366;6.636;2023-07-29T06:08:34;18.20;99.90
52941;DHT22;62001;53.366;6.636;2023-07-29T06:11:00;18.10;99.90
52941;DHT22;62001;53.366;6.636;2023-07-29T06:13:27;18.10;99.90
52941;DHT22;62001;53.366;6.636;2023-07-29T06:15:52;18.20;99.90
52941;DHT22;62001;53.366;6.636;2023-07-29T06:18:18;18.20;99.90
52941;DHT22;62001;53.366;6.636;2023-07-29T06:20:44;18.30;99.90
52941;DHT22;62001;53.366;6.636;2023-07-29T06:23:10;18.30;99.90
52941;DHT22;62001;53.366;6.636;2023-07-29T06:25:36;18.30;99.90
52941;DHT22;62001;53.366;6.636;2023-07-29T06:28:02;18.40;99.90
52941;DHT22;62001;53.366;6.636;2023-07-29T06:30:28;18.50;99.90
52941;DHT22;62001;53.366;6.636;2023-07-29T06:32:54;18.60;99.90
52941;DHT22;62001;53.366;6.636;2023-07-29T06:35:20;18.80;99.90
52941;DHT22;62001;53.366;6.636;2023-07-29T06:37:46;18.90;99.90
52941;DHT22;62001;53.366;6.636;2023-07-29T06:40:12;19.20;99.90
52941;DHT22;62001;53.366;6.636;2023-07-29T06:42:37;19.60;99.90
52941;DHT22;62001;53.366;6.636;2023-07-29T06:45:05;20.00;99.90
52941;DHT22;62001;53.366;6.636;2023-07-29T06:47:31;20.20;99.90
52941;DHT22;62001;53.366;6.636;2023-07-29T06:49:57;20.40;99.90
52941;DHT22;62001;53.366;6.636;2023-07-29T06:52:22;20.60;99.90
52941;DHT22;62001;53.366;6.636;2023-07-29T06:54:48;20.70;99.90
52941;DHT22;62001;53.366;6.636;2023-07-29T06:57:14;20.70;99.90
52941;DHT22;62001;53.366;6.636;2023-07-29T06:59:40;20.60;99.90
52941;DHT22;62001;53.366;6.636;2023-07-29T07:02:06;20.50;99.90
52941;DHT22;62001;53.366;6.636;2023-07-29T07:04:32;20.40;99.90
52941;DHT22;62001;53.366;6.636;2023-07-29T07:06:58;20.40;99.90
52941;DHT22;62001;53.366;6.636;2023-07-29T07:09:24;20.30;99.90
52941;DHT22;62001;53.366;6.636;2023-07-29T07:11:50;20.40;99.90
52941;DHT22;62001;53.366;6.636;2023-07-29T07:14:16;20.40;99.90
52941;DHT22;62001;53.366;6.636;2023-07-29T07:16:42;20.40;99.90
52941;DHT22;62001;53.366;6.636;2023-07-29T07:19:07;20.40;99.90
52941;DHT22;62001;53.366;6.636;2023-07-29T07:21:33;20.70;99.90
52941;DHT22;62001;53.366;6.636;2023-07-29T07:24:00;21.40;99.90
52941;DHT22;62001;53.366;6.636;2023-07-29T07:26:26;21.90;99.90
52941;DHT22;62001;53.366;6.636;2023-07-29T07:28:52;21.90;99.90
52941;DHT22;62001;53.366;6.636;2023-07-29T07:31:17;21.70;99.90
52941;DHT22;62001;53.366;6.636;2023-07-29T07:33:44;21.50;99.90
52941;DHT22;62001;53.366;6.636;2023-07-29T07:36:10;21.20;99.90
52941;DHT22;62001;53.366;6.636;2023-07-29T07:38:35;21.00;99.90
52941;DHT22;62001;53.366;6.636;2023-07-29T07:41:02;20.90;99.90
52941;DHT22;62001;53.366;6.636;2023-07-29T07:43:28;20.80;99.90
52941;DHT22;62001;53.366;6.636;2023-07-29T07:46:01;20.70;99.90
52941;DHT22;62001;53.366;6.636;2023-07-29T07:48:27;20.60;99.90
52941;DHT22;62001;53.366;6.636;2023-07-29T07:50:53;20.60;99.90
52941;DHT22;62001;53.366;6.636;2023-07-29T07:53:19;20.50;99.90
52941;DHT22;62001;53.366;6.636;2023-07-29T07:55:48;20.60;99.90
52941;DHT22;62001;53.366;6.636;2023-07-29T07:58:14;20.60;99.90
52941;DHT22;62001;53.366;6.636;2023-07-29T08:00:40;20.60;99.90
52941;DHT22;62001;53.366;6.636;2023-07-29T08:03:05;20.70;99.90
52941;DHT22;62001;53.366;6.636;2023-07-29T08:05:31;20.70;99.90
52941;DHT22;62001;53.366;6.636;2023-07-29T08:07:57;20.70;99.90
52941;DHT22;62001;53.366;6.636;2023-07-29T08:10:24;20.60;99.90
52941;DHT22;62001;53.366;6.636;2023-07-29T08:12:50;20.50;99.90
52941;DHT22;62001;53.366;6.636;2023-07-29T08:15:15;20.60;99.90
52941;DHT22;62001;53.366;6.636;2023-07-29T08:17:41;20.60;99.90
52941;DHT22;62001;53.366;6.636;2023-07-29T08:20:07;20.80;99.90
52941;DHT22;62001;53.366;6.636;2023-07-29T08:22:33;21.00;99.90
52941;DHT22;62001;53.366;6.636;2023-07-29T08:24:59;21.30;99.90
52941;DHT22;62001;53.366;6.636;2023-07-29T08:27:25;21.80;99.90
52941;DHT22;62001;53.366;6.636;2023-07-29T08:29:51;22.20;99.90
52941;DHT22;62001;53.366;6.636;2023-07-29T08:32:16;22.40;99.90
52941;DHT22;62001;53.366;6.636;2023-07-29T08:34:42;22.50;99.90
52941;DHT22;62001;53.366;6.636;2023-07-29T08:37:08;22.60;99.90
52941;DHT22;62001;53.366;6.636;2023-07-29T08:39:34;22.70;99.90
52941;DHT22;62001;53.366;6.636;2023-07-29T08:42:08;22.70;99.90
52941;DHT22;62001;53.366;6.636;2023-07-29T08:44:40;22.70;99.90
52941;DHT22;62001;53.366;6.636;2023-07-29T08:47:06;22.40;99.90
52941;DHT22;62001;53.366;6.636;2023-07-29T08:49:33;22.30;99.90
52941;DHT22;62001;53.366;6.636;2023-07-29T08:51:59;22.20;99.90
52941;DHT22;62001;53.366;6.636;2023-07-29T08:54:26;22.20;99.90
52941;DHT22;62001;53.366;6.636;2023-07-29T08:56:52;22.30;99.90
52941;DHT22;62001;53.366;6.636;2023-07-29T08:59:19;22.50;99.90
52941;DHT22;62001;53.366;6.636;2023-07-29T09:01:46;22.60;99.90
52941;DHT22;62001;53.366;6.636;2023-07-29T09:04:12;22.60;99.90
52941;DHT22;62001;53.366;6.636;2023-07-29T09:06:39;22.60;99.90
52941;DHT22;62001;53.366;6.636;2023-07-29T09:09:08;22.60;99.90
52941;DHT22;62001;53.366;6.636;2023-07-29T09:11:35;22.70;99.90
52941;DHT22;62001;53.366;6.636;2023-07-29T09:14:01;22.80;99.90
52941;DHT22;62001;53.366;6.636;2023-07-29T09:16:27;22.80;99.90
52941;DHT22;62001;53.366;6.636;2023-07-29T09:18:53;22.90;99.90
52941;DHT22;62001;53.366;6.636;2023-07-29T09:21:24;22.90;99.90
52941;DHT22;62001;53.366;6.636;2023-07-29T09:23:52;22.80;99.90
52941;DHT22;62001;53.366;6.636;2023-07-29T09:26:28;22.80;99.90
52941;DHT22;62001;53.366;6.636;2023-07-29T09:28:58;22.80;99.90
52941;DHT22;62001;53.366;6.636;2023-07-29T09:31:25;23.00;99.90
52941;DHT22;62001;53.366;6.636;2023-07-29T09:34:01;23.20;99.90
52941;DHT22;62001;53.366;6.636;2023-07-29T09:36:29;23.30;99.90
52941;DHT22;62001;53.366;6.636;2023-07-29T09:38:56;23.40;99.90
52941;DHT22;62001;53.366;6.636;2023-07-29T09:41:26;23.30;99.90
52941;DHT22;62001;53.366;6.636;2023-07-29T09:44:01;23.30;99.90
52941;DHT22;62001;53.366;6.636;2023-07-29T09:46:37;23.60;99.90
52941;DHT22;62001;53.366;6.636;2023-07-29T09:49:05;23.70;99.90
52941;DHT22;62001;53.366;6.636;2023-07-29T09:51:31;23.90;99.90
52941;DHT22;62001;53.366;6.636;2023-07-29T09:54:03;24.20;99.90
52941;DHT22;62001;53.366;6.636;2023-07-29T09:56:33;24.20;99.90
52941;DHT22;62001;53.366;6.636;2023-07-29T09:59:10;24.20;99.90
52941;DHT22;62001;53.366;6.636;2023-07-29T10:01:39;24.20;99.90
52941;DHT22;62001;53.366;6.636;2023-07-29T10:04:05;24.10;99.90
52941;DHT22;62001;53.366;6.636;2023-07-29T10:06:34;24.00;99.90
52941;DHT22;62001;53.366;6.636;2023-07-29T10:09:01;24.00;99.90
52941;DHT22;62001;53.366;6.636;2023-07-29T10:11:27;24.10;99.90
52941;DHT22;62001;53.366;6.636;2023-07-29T10:13:53;24.10;99.90
52941;DHT22;62001;53.366;6.636;2023-07-29T10:16:21;24.10;99.90
52941;DHT22;62001;53.366;6.636;2023-07-29T10:18:48;23.90;99.90
52941;DHT22;62001;53.366;6.636;2023-07-29T10:21:14;23.90;99.90
52941;DHT22;62001;53.366;6.636;2023-07-29T10:23:43;23.90;99.90
52941;DHT22;62001;53.366;6.636;2023-07-29T10:26:16;23.90;99.90
52941;DHT22;62001;53.366;6.636;2023-07-29T10:28:47;23.90;99.90
52941;DHT22;62001;53.366;6.636;2023-07-29T10:31:16;23.90;99.90
52941;DHT22;62001;53.366;6.636;2023-07-29T10:33:43;23.90;99.90
52941;DHT22;62001;53.366;6.636;2023-07-29T10:36:09;23.80;99.90
52941;DHT22;62001;53.366;6.636;2023-07-29T10:38:35;23.80;99.90
52941;DHT22;62001;53.366;6.636;2023-07-29T10:41:02;23.80;99.90
52941;DHT22;62001;53.366;6.636;2023-07-29T10:43:36;23.90;99.90
52941;DHT22;62001;53.366;6.636;2023-07-29T10:46:20;24.00;99.90
52941;DHT22;62001;53.366;6.636;2023-07-29T10:48:56;24.10;99.90
52941;DHT22;62001;53.366;6.636;2023-07-29T10:51:36;24.10;99.90
52941;DHT22;62001;53.366;6.636;2023-07-29T10:54:04;24.20;99.90
52941;DHT22;62001;53.366;6.636;2023-07-29T10:56:36;24.30;99.90
52941;DHT22;62001;53.366;6.636;2023-07-29T10:59:30;24.40;99.90
52941;DHT22;62001;53.366;6.636;2023-07-29T11:01:58;24.40;99.90
52941;DHT22;62001;53.366;6.636;2023-07-29T11:04:25;24.30;99.90
52941;DHT22;62001;53.366;6.636;2023-07-29T11:09:52;24.70;99.90
52941;DHT22;62001;53.366;6.636;2023-07-29T11:17:39;24.50;99.90
52941;DHT22;62001;53.366;6.636;2023-07-29T11:20:05;24.20;99.90
52941;DHT22;62001;53.366;6.636;2023-07-29T11:22:33;24.00;99.90
52941;DHT22;62001;53.366;6.636;2023-07-29T11:24:59;23.70;99.90
52941;DHT22;62001;53.366;6.636;2023-07-29T11:27:25;23.60;99.90
52941;DHT22;62001;53.366;6.636;2023-07-29T11:29:59;23.30;99.90
52941;DHT22;62001;53.366;6.636;2023-07-29T11:32:26;23.10;99.90
52941;DHT22;62001;53.366;6.636;2023-07-29T11:34:52;22.90;99.90
52941;DHT22;62001;53.366;6.636;2023-07-29T11:37:17;22.80;99.90
52941;DHT22;62001;53.366;6.636;2023-07-29T11:39:44;22.80;99.90
52941;DHT22;62001;53.366;6.636;2023-07-29T11:42:11;22.60;99.90
52941;DHT22;62001;53.366;6.636;2023-07-29T11:44:38;22.50;99.90
52941;DHT22;62001;53.366;6.636;2023-07-29T11:47:10;22.30;99.90
52941;DHT22;62001;53.366;6.636;2023-07-29T11:49:38;22.00;99.90
52941;DHT22;62001;53.366;6.636;2023-07-29T11:52:10;22.00;99.90
52941;DHT22;62001;53.366;6.636;2023-07-29T11:54:37;22.20;99.90
52941;DHT22;62001;53.366;6.636;2023-07-29T11:57:07;22.50;99.90
52941;DHT22;62001;53.366;6.636;2023-07-29T11:59:37;22.70;99.90
52941;DHT22;62001;53.366;6.636;2023-07-29T12:02:11;22.70;99.90
52941;DHT22;62001;53.366;6.636;2023-07-29T12:04:38;22.90;99.90
52941;DHT22;62001;53.366;6.636;2023-07-29T12:07:05;22.90;99.90
52941;DHT22;62001;53.366;6.636;2023-07-29T12:09:31;22.80;99.90
52941;DHT22;62001;53.366;6.636;2023-07-29T12:11:57;22.60;99.90
52941;DHT22;62001;53.366;6.636;2023-07-29T12:14:28;22.40;99.90
52941;DHT22;62001;53.366;6.636;2023-07-29T12:16:54;22.10;99.90
52941;DHT22;62001;53.366;6.636;2023-07-29T12:19:20;21.50;99.90
52941;DHT22;62001;53.366;6.636;2023-07-29T12:21:48;21.10;99.90
52941;DHT22;62001;53.366;6.636;2023-07-29T12:24:14;20.80;99.90
52941;DHT22;62001;53.366;6.636;2023-07-29T12:26:41;20.70;99.90
52941;DHT22;62001;53.366;6.636;2023-07-29T12:29:14;20.70;99.90
52941;DHT22;62001;53.366;6.636;2023-07-29T12:31:41;20.80;99.90
52941;DHT22;62001;53.366;6.636;2023-07-29T12:34:07;20.80;99.90
52941;DHT22;62001;53.366;6.636;2023-07-29T12:36:47;20.80;99.90
52941;DHT22;62001;53.366;6.636;2023-07-29T12:39:23;20.80;99.90
52941;DHT22;62001;53.366;6.636;2023-07-29T12:41:51;20.80;99.90
52941;DHT22;62001;53.366;6.636;2023-07-29T12:44:17;21.00;99.90
52941;DHT22;62001;53.366;6.636;2023-07-29T12:46:43;21.20;99.90
52941;DHT22;62001;53.366;6.636;2023-07-29T12:49:09;21.30;99.90
52941;DHT22;62001;53.366;6.636;2023-07-29T12:51:35;21.20;99.90
52941;DHT22;62001;53.366;6.636;2023-07-29T12:54:05;21.20;99.90
52941;DHT22;62001;53.366;6.636;2023-07-29T12:56:32;21.20;99.90
52941;DHT22;62001;53.366;6.636;2023-07-29T12:58:58;21.30;99.90
52941;DHT22;62001;53.366;6.636;2023-07-29T13:01:25;21.30;99.90
52941;DHT22;62001;53.366;6.636;2023-07-29T13:03:51;21.30;99.90
52941;DHT22;62001;53.366;6.636;2023-07-29T13:06:17;21.40;99.90
52941;DHT22;62001;53.366;6.636;2023-07-29T13:08:45;21.40;99.90
52941;DHT22;62001;53.366;6.636;2023-07-29T13:11:11;21.50;99.90
52941;DHT22;62001;53.366;6.636;2023-07-29T13:13:37;21.50;99.90
52941;DHT22;62001;53.366;6.636;2023-07-29T13:16:03;21.50;99.90
52941;DHT22;62001;53.366;6.636;2023-07-29T13:18:29;21.50;99.90
52941;DHT22;62001;53.366;6.636;2023-07-29T13:20:55;21.50;99.90
52941;DHT22;62001;53.366;6.636;2023-07-29T13:23:21;21.60;99.90
52941;DHT22;62001;53.366;6.636;2023-07-29T13:25:47;21.70;99.90
52941;DHT22;62001;53.366;6.636;2023-07-29T13:28:13;21.80;99.90
52941;DHT22;62001;53.366;6.636;2023-07-29T13:30:40;22.10;99.90
52941;DHT22;62001;53.366;6.636;2023-07-29T13:33:09;22.50;99.90
52941;DHT22;62001;53.366;6.636;2023-07-29T13:35:34;22.70;99.90
52941;DHT22;62001;53.366;6.636;2023-07-29T13:38:01;23.00;99.90
52941;DHT22;62001;53.366;6.636;2023-07-29T13:40:27;23.20;99.90
52941;DHT22;62001;53.366;6.636;2023-07-29T13:42:53;23.20;99.90
52941;DHT22;62001;53.366;6.636;2023-07-29T13:45:20;23.10;99.90
52941;DHT22;62001;53.366;6.636;2023-07-29T13:47:46;22.90;99.90
52941;DHT22;62001;53.366;6.636;2023-07-29T13:50:12;23.00;99.90
52941;DHT22;62001;53.366;6.636;2023-07-29T13:52:38;23.10;99.90
52941;DHT22;62001;53.366;6.636;2023-07-29T13:55:05;23.10;99.90
52941;DHT22;62001;53.366;6.636;2023-07-29T13:57:32;23.10;99.90
52941;DHT22;62001;53.366;6.636;2023-07-29T13:59:58;23.00;99.90
52941;DHT22;62001;53.366;6.636;2023-07-29T14:02:24;23.00;99.90
52941;DHT22;62001;53.366;6.636;2023-07-29T14:04:52;23.10;99.90
52941;DHT22;62001;53.366;6.636;2023-07-29T14:07:18;23.10;99.90
52941;DHT22;62001;53.366;6.636;2023-07-29T14:09:43;22.90;99.90
52941;DHT22;62001;53.366;6.636;2023-07-29T14:12:09;22.80;99.90
52941;DHT22;62001;53.366;6.636;2023-07-29T14:14:40;22.80;99.90
52941;DHT22;62001;53.366;6.636;2023-07-29T14:17:06;22.80;99.90
52941;DHT22;62001;53.366;6.636;2023-07-29T14:19:34;22.70;99.90
52941;DHT22;62001;53.366;6.636;2023-07-29T14:22:00;22.70;99.90
52941;DHT22;62001;53.366;6.636;2023-07-29T14:24:26;22.90;99.90
52941;DHT22;62001;53.366;6.636;2023-07-29T14:26:52;23.00;99.90
52941;DHT22;62001;53.366;6.636;2023-07-29T14:29:17;23.10;99.90
52941;DHT22;62001;53.366;6.636;2023-07-29T14:31:43;23.00;99.90
52941;DHT22;62001;53.366;6.636;2023-07-29T14:34:09;22.90;99.90
52941;DHT22;62001;53.366;6.636;2023-07-29T14:36:36;22.80;99.90
52941;DHT22;62001;53.366;6.636;2023-07-29T14:39:02;22.90;99.90
52941;DHT22;62001;53.366;6.636;2023-07-29T14:41:30;23.00;99.90
52941;DHT22;62001;53.366;6.636;2023-07-29T14:43:56;23.10;99.90
52941;DHT22;62001;53.366;6.636;2023-07-29T14:46:22;23.20;99.90
52941;DHT22;62001;53.366;6.636;2023-07-29T14:48:48;23.20;99.90
52941;DHT22;62001;53.366;6.636;2023-07-29T14:51:14;23.30;99.90
52941;DHT22;62001;53.366;6.636;2023-07-29T14:53:40;23.20;99.90
52941;DHT22;62001;53.366;6.636;2023-07-29T14:56:06;23.20;99.90
52941;DHT22;62001;53.366;6.636;2023-07-29T14:58:31;23.30;99.90
52941;DHT22;62001;53.366;6.636;2023-07-29T15:00:57;23.40;99.90
52941;DHT22;62001;53.366;6.636;2023-07-29T15:03:26;23.50;99.90
52941;DHT22;62001;53.366;6.636;2023-07-29T15:05:52;23.50;99.90
52941;DHT22;62001;53.366;6.636;2023-07-29T15:08:18;23.60;99.90
52941;DHT22;62001;53.366;6.636;2023-07-29T15:10:47;23.60;99.90
52941;DHT22;62001;53.366;6.636;2023-07-29T15:13:14;23.50;99.90
52941;DHT22;62001;53.366;6.636;2023-07-29T15:15:43;23.40;99.90
52941;DHT22;62001;53.366;6.636;2023-07-29T15:18:10;23.50;99.90
52941;DHT22;62001;53.366;6.636;2023-07-29T15:20:35;23.60;99.90
52941;DHT22;62001;53.366;6.636;2023-07-29T15:23:01;23.70;99.90
52941;DHT22;62001;53.366;6.636;2023-07-29T15:25:29;23.70;99.90
52941;DHT22;62001;53.366;6.636;2023-07-29T15:27:55;23.60;99.90
52941;DHT22;62001;53.366;6.636;2023-07-29T15:30:21;23.60;99.90
52941;DHT22;62001;53.366;6.636;2023-07-29T15:32:46;23.60;99.90
52941;DHT22;62001;53.366;6.636;2023-07-29T15:35:12;23.50;99.90
52941;DHT22;62001;53.366;6.636;2023-07-29T15:37:39;23.40;99.90
52941;DHT22;62001;53.366;6.636;2023-07-29T15:40:05;23.30;99.90
52941;DHT22;62001;53.366;6.636;2023-07-29T15:42:32;23.40;99.90